createdAt,value
2022-10-20T00:01:28.599Z,6.83
2022-10-20T00:03:56.262Z,6.68
2022-10-20T00:06:29.296Z,6.91
2022-10-20T00:08:59.374Z,6.72
2022-10-20T00:11:27.333Z,6.80
2022-10-20T00:13:56.679Z,6.79
2022-10-20T00:16:26.138Z,6.61
2022-10-20T00:18:53.457Z,6.87
2022-10-20T00:21:24.250Z,6.92
2022-10-20T00:23:52.334Z,6.73
2022-10-20T00:26:28.039Z,6.55
2022-10-20T00:28:56.233Z,6.52
2022-10-20T00:31:25.075Z,6.43
2022-10-20T00:33:52.873Z,6.48
2022-10-20T00:36:22.249Z,6.57
2022-10-20T00:38:50.092Z,6.70
2022-10-20T00:41:20.156Z,6.88
2022-10-20T00:43:54.023Z,6.77
2022-10-20T00:46:30.409Z,6.82
2022-10-20T00:49:06.933Z,6.76
2022-10-20T00:51:35.217Z,6.99
2022-10-20T00:54:11.976Z,7.02
2022-10-20T00:56:43.598Z,7.00
2022-10-20T00:59:13.364Z,7.04
2022-10-20T01:01:42.531Z,6.84
2022-10-20T01:04:10.335Z,6.76
2022-10-20T01:06:38.587Z,6.58
2022-10-20T01:09:06.317Z,6.51
2022-10-20T01:12:08.864Z,6.44
2022-10-20T01:15:02.325Z,6.58
2022-10-20T01:17:43.399Z,6.71
2022-10-20T01:20:44.200Z,6.97
2022-10-20T01:23:30.321Z,6.91
2022-10-20T01:26:00.402Z,6.98
2022-10-20T01:28:40.857Z,7.10
2022-10-20T01:31:29.272Z,7.11
2022-10-20T01:34:11.986Z,7.08
2022-10-20T01:36:47.518Z,6.89
2022-10-20T01:39:25.617Z,6.99
2022-10-20T01:42:00.803Z,6.80
2022-10-20T01:44:30.989Z,6.74
2022-10-20T01:46:59.216Z,6.60
2022-10-20T01:49:27.306Z,6.46
2022-10-20T01:51:56.255Z,6.47
2022-10-20T01:54:28.760Z,6.56
2022-10-20T01:57:23.518Z,6.28
2022-10-20T02:00:02.763Z,6.44
2022-10-20T02:02:43.539Z,6.52
2022-10-20T02:05:28.766Z,6.51
2022-10-20T02:08:05.813Z,6.31
2022-10-20T02:10:43.529Z,6.19
2022-10-20T02:13:12.667Z,5.97
2022-10-20T02:15:47.166Z,5.88
2022-10-20T02:18:20.616Z,6.03
2022-10-20T02:20:51.733Z,6.06
2022-10-20T02:23:19.199Z,6.17
2022-10-20T02:25:50.050Z,5.85
2022-10-20T02:28:18.035Z,5.86
2022-10-20T02:30:46.698Z,6.04
2022-10-20T02:33:16.288Z,5.69
2022-10-20T02:35:51.510Z,5.90
2022-10-20T02:38:18.726Z,5.89
2022-10-20T02:40:46.587Z,6.01
2022-10-20T02:43:13.949Z,6.07
2022-10-20T02:45:41.557Z,5.82
2022-10-20T02:48:11.857Z,5.66
2022-10-20T02:50:39.271Z,5.71
2022-10-20T02:53:06.505Z,5.92
2022-10-20T02:55:33.842Z,5.69
2022-10-20T02:58:00.972Z,5.76
2022-10-20T03:00:31.132Z,5.76
2022-10-20T03:02:58.390Z,5.89
2022-10-20T03:05:27.115Z,5.92
2022-10-20T03:07:54.279Z,5.94
2022-10-20T03:10:21.977Z,5.84
2022-10-20T03:12:49.103Z,5.86
2022-10-20T03:15:16.768Z,5.90
2022-10-20T03:17:43.865Z,5.85
2022-10-20T03:20:11.418Z,5.64
2022-10-20T03:22:38.563Z,5.63
2022-10-20T03:25:06.267Z,5.60
2022-10-20T03:27:33.670Z,5.58
2022-10-20T03:30:01.203Z,5.80
2022-10-20T03:32:28.402Z,5.85
2022-10-20T03:34:55.790Z,5.65
2022-10-20T03:37:22.911Z,5.50
2022-10-20T03:39:50.258Z,5.61
2022-10-20T03:42:17.502Z,5.67
2022-10-20T03:44:45.261Z,5.68
2022-10-20T03:47:13.368Z,5.81
2022-10-20T03:49:41.004Z,5.87
2022-10-20T03:52:08.263Z,5.74
2022-10-20T03:54:36.956Z,5.88
2022-10-20T03:57:07.002Z,5.91
2022-10-20T03:59:35.344Z,5.88
2022-10-20T04:02:03.029Z,6.03
2022-10-20T04:04:30.440Z,6.01
2022-10-20T04:06:57.603Z,6.09
2022-10-20T04:09:25.014Z,5.96
2022-10-20T04:11:52.148Z,5.81
2022-10-20T04:14:19.770Z,5.87
2022-10-20T04:16:46.898Z,5.86
2022-10-20T04:19:14.255Z,5.77
2022-10-20T04:21:41.442Z,5.97
2022-10-20T04:24:08.834Z,5.83
2022-10-20T04:26:35.991Z,5.52
2022-10-20T04:29:03.570Z,5.72
2022-10-20T04:31:30.736Z,5.77
2022-10-20T04:33:58.108Z,5.63
2022-10-20T04:36:25.318Z,5.57
2022-10-20T04:38:52.656Z,5.52
2022-10-20T04:41:19.818Z,5.56
2022-10-20T04:43:52.134Z,5.53
2022-10-20T04:46:19.838Z,5.42
2022-10-20T04:48:47.218Z,5.45
2022-10-20T04:51:15.650Z,5.57
2022-10-20T04:53:43.181Z,5.37
2022-10-20T04:56:13.965Z,5.39
2022-10-20T04:58:41.260Z,5.38
2022-10-20T05:01:10.152Z,5.33
2022-10-20T05:03:37.591Z,5.33
2022-10-20T05:06:20.001Z,5.35
2022-10-20T05:08:49.131Z,5.05
2022-10-20T05:11:16.875Z,5.10
2022-10-20T05:13:45.116Z,5.03
2022-10-20T05:16:13.108Z,5.04
2022-10-20T05:18:40.962Z,5.24
2022-10-20T05:21:14.013Z,5.05
2022-10-20T05:23:42.501Z,5.09
2022-10-20T05:26:12.495Z,5.21
2022-10-20T05:28:42.666Z,5.14
2022-10-20T05:31:09.998Z,5.06
2022-10-20T05:33:38.266Z,4.93
2022-10-20T05:36:18.031Z,4.90
2022-10-20T05:38:49.318Z,5.02
2022-10-20T05:41:18.946Z,4.98
2022-10-20T05:44:00.916Z,5.16
2022-10-20T05:46:30.729Z,4.93
2022-10-20T05:49:01.311Z,4.87
2022-10-20T05:51:31.311Z,4.98
2022-10-20T05:53:59.540Z,4.93
2022-10-20T05:56:28.476Z,5.01
2022-10-20T05:58:57.138Z,4.66
2022-10-20T06:01:38.916Z,4.77
2022-10-20T06:04:08.606Z,4.57
2022-10-20T06:06:36.338Z,4.83
2022-10-20T06:09:07.024Z,4.77
2022-10-20T06:11:39.296Z,4.88
2022-10-20T06:14:10.596Z,5.07
2022-10-20T06:16:38.412Z,4.93
2022-10-20T06:19:07.269Z,5.18
2022-10-20T06:21:35.533Z,6.35
2022-10-20T06:24:05.025Z,6.46
2022-10-20T06:26:33.961Z,7.35
2022-10-20T06:29:04.696Z,7.76
2022-10-20T06:31:33.782Z,8.80
2022-10-20T06:34:04.145Z,11.39
2022-10-20T06:36:31.259Z,13.38
2022-10-20T06:38:59.409Z,14.82
2022-10-20T06:41:28.532Z,15.89
2022-10-20T06:43:59.278Z,16.23
2022-10-20T06:46:32.168Z,17.26
2022-10-20T06:49:08.168Z,18.06
2022-10-20T06:51:36.247Z,19.16
2022-10-20T06:54:05.119Z,19.61
2022-10-20T06:56:34.573Z,19.39
2022-10-20T06:59:03.300Z,20.79
2022-10-20T07:01:33.307Z,21.85
2022-10-20T07:04:03.435Z,20.89
2022-10-20T07:06:35.702Z,18.79
2022-10-20T07:09:04.774Z,17.07
2022-10-20T07:11:32.317Z,14.77
2022-10-20T07:14:01.166Z,14.07
2022-10-20T07:16:30.710Z,12.97
2022-10-20T07:18:58.431Z,12.77
2022-10-20T07:21:32.298Z,14.27
2022-10-20T07:24:05.228Z,17.54
2022-10-20T07:26:35.137Z,20.37
2022-10-20T07:29:03.942Z,21.85
2022-10-20T07:31:40.401Z,19.00
2022-10-20T07:34:27.244Z,17.03
2022-10-20T07:36:56.759Z,15.25
2022-10-20T07:39:24.238Z,14.44
2022-10-20T07:41:51.495Z,13.80
2022-10-20T07:44:19.733Z,15.10
2022-10-20T07:46:47.039Z,16.96
2022-10-20T07:49:43.062Z,18.28
2022-10-20T07:52:01.556Z,20.83
2022-10-20T07:54:29.110Z,21.08
2022-10-20T07:56:56.395Z,21.03
2022-10-20T07:59:24.530Z,22.25
2022-10-20T08:01:54.735Z,22.40
2022-10-20T08:04:23.581Z,22.55
2022-10-20T08:06:50.815Z,21.28
2022-10-20T08:09:18.168Z,20.62
2022-10-20T08:11:45.354Z,22.31
2022-10-20T08:14:12.733Z,22.98
2022-10-20T08:16:39.903Z,22.74
2022-10-20T08:19:20.774Z,22.88
2022-10-20T08:21:47.908Z,23.50
2022-10-20T08:24:15.252Z,23.64
2022-10-20T08:26:42.451Z,24.02
2022-10-20T08:29:09.997Z,24.21
2022-10-20T08:31:37.120Z,24.87
2022-10-20T08:34:04.842Z,24.86
2022-10-20T08:36:32.001Z,24.42
2022-10-20T08:39:03.453Z,24.63
2022-10-20T08:44:35.958Z,21.79
2022-10-20T08:47:05.660Z,22.20
2022-10-20T08:49:35.132Z,21.42
2022-10-20T08:52:02.470Z,21.57
2022-10-20T08:54:34.175Z,19.44
2022-10-20T08:57:01.337Z,19.35
2022-10-20T08:59:39.718Z,17.76
2022-10-20T09:02:15.711Z,16.92
2022-10-20T09:04:47.734Z,19.15
2022-10-20T09:07:34.623Z,20.46
2022-10-20T09:10:21.072Z,21.85
2022-10-20T09:12:49.521Z,21.35
2022-10-20T09:15:18.755Z,22.04
2022-10-20T09:18:00.785Z,22.44
2022-10-20T09:20:56.037Z,22.86
2022-10-20T09:23:44.783Z,23.09
2022-10-20T09:26:57.574Z,23.63
2022-10-20T09:29:35.872Z,22.95
2022-10-20T09:32:27.304Z,23.41
2022-10-20T09:34:50.718Z,23.12
2022-10-20T09:37:20.050Z,23.36
2022-10-20T09:39:50.209Z,23.80
2022-10-20T09:42:25.468Z,22.59
2022-10-20T09:44:56.853Z,22.66
2022-10-20T09:47:25.256Z,22.82
2022-10-20T09:50:05.756Z,21.45
2022-10-20T09:52:47.827Z,22.54
2022-10-20T09:55:30.762Z,22.42
2022-10-20T09:58:01.554Z,22.91
2022-10-20T10:00:44.614Z,22.00
2022-10-20T10:03:22.671Z,22.79
2022-10-20T10:05:52.568Z,23.03
2022-10-20T10:08:22.768Z,22.83
2022-10-20T10:10:59.937Z,22.37
2022-10-20T10:13:30.867Z,23.10
2022-10-20T10:16:08.262Z,23.36
2022-10-20T10:18:37.852Z,23.89
2022-10-20T10:21:08.638Z,22.14
2022-10-20T10:23:49.764Z,20.58
2022-10-20T10:26:45.383Z,19.25
2022-10-20T10:29:28.527Z,20.35
2022-10-20T10:32:01.831Z,21.28
2022-10-20T10:34:44.032Z,21.33
2022-10-20T10:37:14.271Z,21.27
2022-10-20T10:39:42.368Z,20.19
2022-10-20T10:42:22.383Z,18.53
2022-10-20T10:45:07.866Z,17.55
2022-10-20T10:47:50.378Z,16.44
2022-10-20T10:50:51.763Z,15.92
2022-10-20T10:53:37.151Z,16.08
2022-10-20T10:56:19.713Z,17.82
2022-10-20T10:59:20.240Z,19.63
2022-10-20T11:02:52.994Z,19.34
2022-10-20T11:05:24.205Z,17.43
2022-10-20T11:08:09.882Z,16.91
2022-10-20T11:11:02.834Z,15.06
2022-10-20T11:13:44.201Z,14.75
2022-10-20T11:16:36.415Z,14.56
2022-10-20T11:19:49.191Z,13.47
2022-10-20T11:22:46.580Z,13.27
2022-10-20T11:25:22.666Z,13.16
2022-10-20T11:27:50.803Z,13.33
2022-10-20T11:30:21.357Z,13.56
2022-10-20T11:32:58.528Z,13.51
2022-10-20T11:35:57.017Z,13.46
2022-10-20T11:38:36.045Z,13.21
2022-10-20T11:41:08.263Z,13.07
2022-10-20T11:43:48.069Z,13.06
2022-10-20T11:46:26.801Z,12.84
2022-10-20T11:48:56.118Z,12.87
2022-10-20T11:51:31.530Z,12.52
2022-10-20T11:54:24.696Z,12.54
2022-10-20T11:57:33.524Z,11.94
2022-10-20T12:00:28.590Z,12.03
2022-10-20T12:03:25.852Z,11.68
2022-10-20T12:06:14.558Z,11.66
2022-10-20T12:08:41.915Z,11.54
2022-10-20T12:11:09.057Z,11.50
2022-10-20T12:13:52.283Z,10.70
2022-10-20T12:16:53.736Z,10.72
2022-10-20T12:19:28.671Z,10.21
2022-10-20T12:22:06.931Z,10.18
2022-10-20T12:24:50.343Z,10.52
2022-10-20T12:27:22.375Z,10.40
2022-10-20T12:29:51.451Z,10.55
2022-10-20T12:32:21.728Z,10.86
2022-10-20T12:34:55.396Z,10.88
2022-10-20T12:37:28.679Z,10.83
2022-10-20T12:40:18.612Z,10.84
2022-10-20T12:42:52.948Z,10.26
2022-10-20T12:45:20.246Z,10.31
2022-10-20T12:48:00.221Z,10.19
2022-10-20T12:50:50.814Z,10.37
2022-10-20T12:53:18.213Z,10.44
2022-10-20T12:55:54.119Z,10.68
2022-10-20T12:58:22.507Z,10.84
2022-10-20T13:00:49.770Z,10.80
2022-10-20T13:03:55.038Z,10.25
2022-10-20T13:06:30.214Z,10.41
2022-10-20T13:09:03.930Z,10.34
2022-10-20T13:11:44.743Z,10.46
2022-10-20T13:14:33.255Z,10.68
2022-10-20T13:17:16.159Z,10.70
2022-10-20T13:19:46.582Z,10.44
2022-10-20T13:22:48.553Z,10.35
2022-10-20T13:25:36.385Z,10.23
2022-10-20T13:28:16.042Z,10.00
2022-10-20T13:30:56.068Z,9.86
2022-10-20T13:33:58.400Z,9.89
2022-10-20T13:36:34.009Z,9.77
2022-10-20T13:39:30.799Z,9.83
2022-10-20T13:42:22.787Z,9.79
2022-10-20T13:45:26.935Z,9.92
2022-10-20T13:48:12.720Z,9.89
2022-10-20T13:50:44.177Z,9.87
2022-10-20T13:53:28.488Z,9.90
2022-10-20T13:56:17.054Z,9.72
2022-10-20T13:59:06.292Z,9.84
2022-10-20T14:01:36.457Z,9.74
2022-10-20T14:04:34.024Z,9.77
2022-10-20T14:07:17.325Z,9.81
2022-10-20T14:09:47.641Z,9.71
2022-10-20T14:12:23.577Z,9.59
2022-10-20T14:14:51.336Z,9.50
2022-10-20T14:17:23.962Z,9.55
2022-10-20T14:20:07.722Z,9.47
2022-10-20T14:22:35.710Z,9.61
2022-10-20T14:25:05.529Z,9.50
2022-10-20T14:27:36.716Z,9.69
2022-10-20T14:30:05.654Z,9.52
2022-10-20T14:32:39.338Z,9.51
2022-10-20T14:35:18.964Z,9.33
2022-10-20T14:38:05.958Z,9.25
2022-10-20T14:40:35.517Z,9.37
2022-10-20T14:43:43.452Z,9.43
2022-10-20T14:46:13.159Z,9.30
2022-10-20T14:48:49.304Z,9.19
2022-10-20T14:51:40.346Z,9.07
2022-10-20T14:54:19.558Z,8.93
2022-10-20T14:56:53.706Z,9.02
2022-10-20T14:59:27.129Z,8.97
2022-10-20T15:02:12.961Z,8.98
2022-10-20T15:04:45.306Z,8.97
2022-10-20T15:07:33.452Z,8.88
2022-10-20T15:10:09.045Z,8.74
2022-10-20T15:12:36.575Z,8.81
2022-10-20T15:15:29.490Z,8.77
2022-10-20T15:18:18.411Z,8.71
2022-10-20T15:20:47.915Z,8.64
2022-10-20T15:23:15.341Z,8.65
2022-10-20T15:25:45.429Z,8.57
2022-10-20T15:28:34.279Z,8.48
2022-10-20T15:31:04.460Z,8.42
2022-10-20T15:33:32.145Z,8.36
2022-10-20T15:36:01.748Z,8.30
2022-10-20T15:38:29.141Z,8.24
2022-10-20T15:40:56.617Z,8.17
2022-10-20T15:43:25.825Z,8.13
2022-10-20T15:45:55.230Z,8.09
2022-10-20T15:48:26.035Z,8.05
2022-10-20T15:50:54.706Z,8.08
2022-10-20T15:53:21.934Z,7.97
2022-10-20T15:55:49.283Z,7.81
2022-10-20T15:58:16.761Z,7.80
2022-10-20T16:00:44.331Z,7.70
2022-10-20T16:03:18.117Z,7.68
2022-10-20T16:05:47.077Z,7.59
2022-10-20T16:10:43.765Z,7.47
2022-10-20T16:13:11.898Z,7.40
2022-10-20T16:15:39.399Z,7.41
2022-10-20T16:18:09.604Z,7.37
2022-10-20T16:20:37.489Z,7.31
2022-10-20T16:23:04.645Z,7.25
2022-10-20T16:25:32.194Z,7.22
2022-10-20T16:27:59.362Z,7.28
2022-10-20T16:30:26.843Z,7.16
2022-10-20T16:32:54.378Z,7.12
2022-10-20T16:35:22.645Z,7.03
2022-10-20T16:37:49.968Z,7.00
2022-10-20T16:40:17.498Z,6.87
2022-10-20T16:42:44.604Z,6.80
2022-10-20T16:45:12.096Z,6.84
2022-10-20T16:47:40.007Z,6.88
2022-10-20T16:50:08.523Z,6.79
2022-10-20T16:52:35.733Z,6.80
2022-10-20T16:55:03.250Z,6.74
2022-10-20T16:57:38.202Z,6.61
2022-10-20T17:00:08.400Z,6.72
2022-10-20T17:02:36.598Z,6.72
2022-10-20T17:05:08.196Z,6.61
2022-10-20T17:07:37.113Z,6.62
2022-10-20T17:10:05.312Z,6.52
2022-10-20T17:12:32.530Z,6.53
2022-10-20T17:14:59.916Z,6.46
2022-10-20T17:17:27.064Z,6.26
2022-10-20T17:19:54.657Z,6.44
2022-10-20T17:22:21.882Z,6.27
2022-10-20T17:24:49.308Z,6.14
2022-10-20T17:27:16.441Z,6.20
2022-10-20T17:29:43.831Z,6.35
2022-10-20T17:32:14.346Z,6.23
2022-10-20T17:34:44.754Z,6.13
2022-10-20T17:37:11.901Z,6.06
2022-10-20T17:39:39.360Z,6.05
2022-10-20T17:42:06.524Z,5.87
2022-10-20T17:44:33.900Z,6.13
2022-10-20T17:47:04.415Z,6.20
2022-10-20T17:49:31.848Z,6.05
2022-10-20T17:51:59.091Z,6.07
2022-10-20T17:54:26.435Z,5.86
2022-10-20T17:56:53.683Z,5.79
2022-10-20T17:59:21.061Z,5.84
2022-10-20T18:01:48.290Z,5.86
2022-10-20T18:04:17.318Z,5.68
2022-10-20T18:06:45.639Z,5.67
2022-10-20T18:09:15.880Z,5.84
2022-10-20T18:11:46.348Z,5.74
2022-10-20T18:14:13.956Z,5.80
2022-10-20T18:16:41.284Z,5.85
2022-10-20T18:19:14.423Z,5.80
2022-10-20T18:21:41.903Z,5.77
2022-10-20T18:24:12.106Z,5.80
2022-10-20T18:26:39.466Z,5.84
2022-10-20T18:29:09.366Z,5.83
2022-10-20T18:31:38.396Z,5.74
2022-10-20T18:34:09.195Z,5.62
2022-10-20T18:36:40.403Z,5.57
2022-10-20T18:39:11.053Z,5.50
2022-10-20T18:41:40.663Z,5.65
2022-10-20T18:44:12.126Z,5.40
2022-10-20T18:46:39.965Z,5.56
2022-10-20T18:49:09.214Z,5.42
2022-10-20T18:51:37.100Z,5.28
2022-10-20T18:54:06.397Z,5.42
2022-10-20T18:56:34.615Z,5.27
2022-10-20T18:59:04.476Z,5.21
2022-10-20T19:01:35.366Z,5.20
2022-10-20T19:04:04.494Z,5.15
2022-10-20T19:06:34.674Z,5.35
2022-10-20T19:09:23.643Z,5.22
2022-10-20T19:14:23.463Z,5.16
2022-10-20T19:16:51.168Z,5.14
2022-10-20T19:19:18.523Z,5.05
2022-10-20T19:21:47.122Z,5.29
2022-10-20T19:24:20.726Z,5.25
2022-10-20T19:27:02.210Z,5.44
2022-10-20T19:29:35.649Z,5.31
2022-10-20T19:32:05.388Z,5.39
2022-10-20T19:34:39.400Z,5.14
2022-10-20T19:37:07.302Z,5.15
2022-10-20T19:39:38.234Z,5.08
2022-10-20T19:42:06.932Z,5.01
2022-10-20T19:44:34.744Z,5.00
2022-10-20T19:47:02.374Z,4.95
2022-10-20T19:49:29.747Z,4.99
2022-10-20T19:51:57.018Z,4.86
2022-10-20T19:54:24.669Z,4.82
2022-10-20T19:56:52.005Z,4.71
2022-10-20T19:59:19.482Z,4.67
2022-10-20T20:01:49.663Z,4.66
2022-10-20T20:04:17.301Z,4.50
2022-10-20T20:06:44.796Z,4.48
2022-10-20T20:09:15.526Z,4.58
2022-10-20T20:11:43.526Z,4.55
2022-10-20T20:14:16.881Z,4.53
2022-10-20T20:16:46.190Z,4.73
2022-10-20T20:19:15.933Z,4.67
2022-10-20T20:21:43.181Z,4.80
2022-10-20T20:24:12.749Z,4.57
2022-10-20T20:26:40.046Z,4.48
2022-10-20T20:29:07.516Z,4.35
2022-10-20T20:31:34.699Z,4.37
2022-10-20T20:34:02.066Z,4.35
2022-10-20T20:36:29.283Z,4.30
2022-10-20T20:38:58.402Z,4.25
2022-10-20T20:41:28.247Z,4.17
2022-10-20T20:43:55.955Z,4.11
2022-10-20T20:46:24.871Z,4.18
2022-10-20T20:48:52.301Z,4.04
2022-10-20T20:51:19.491Z,3.95
2022-10-20T20:53:47.130Z,3.86
2022-10-20T20:56:16.844Z,3.91
2022-10-20T20:58:49.137Z,3.94
2022-10-20T21:01:21.625Z,3.95
2022-10-20T21:03:54.384Z,3.93
2022-10-20T21:06:25.700Z,3.92
2022-10-20T21:09:01.665Z,3.99
2022-10-20T21:11:28.966Z,3.92
2022-10-20T21:13:59.054Z,3.93
2022-10-20T21:16:28.607Z,3.87
2022-10-20T21:19:01.732Z,3.93
2022-10-20T21:21:31.474Z,3.94
2022-10-20T21:24:00.934Z,3.96
2022-10-20T21:26:30.250Z,3.87
2022-10-20T21:28:58.240Z,3.86
2022-10-20T21:31:27.461Z,3.78
2022-10-20T21:33:57.473Z,3.71
2022-10-20T21:36:26.159Z,3.70
2022-10-20T21:38:54.226Z,3.62
2022-10-20T21:41:24.180Z,3.65
2022-10-20T21:43:54.123Z,3.63
2022-10-20T21:46:22.462Z,3.63
2022-10-20T21:48:52.903Z,3.61
2022-10-20T21:51:24.050Z,3.80
2022-10-20T21:53:59.816Z,3.55
2022-10-20T21:56:27.584Z,3.68
2022-10-20T21:58:55.195Z,3.74
2022-10-20T22:01:24.744Z,3.61
2022-10-20T22:03:53.945Z,3.52
2022-10-20T22:06:26.162Z,3.63
2022-10-20T22:08:56.101Z,3.76
2022-10-20T22:11:35.149Z,3.82
2022-10-20T22:14:02.650Z,3.62
2022-10-20T22:16:32.438Z,3.57
2022-10-20T22:19:07.134Z,3.72
2022-10-20T22:21:40.005Z,3.81
2022-10-20T22:24:07.829Z,3.60
2022-10-20T22:26:35.919Z,3.70
2022-10-20T22:29:05.198Z,3.75
2022-10-20T22:31:32.753Z,3.61
2022-10-20T22:34:00.284Z,3.67
2022-10-20T22:36:29.045Z,3.53
2022-10-20T22:38:56.551Z,3.63
2022-10-20T22:41:23.757Z,3.55
2022-10-20T22:43:51.149Z,3.55
2022-10-20T22:46:18.416Z,3.59
2022-10-20T22:48:46.493Z,3.53
2022-10-20T22:51:13.790Z,3.65
2022-10-20T22:53:42.446Z,3.53
2022-10-20T22:56:19.403Z,3.57
2022-10-20T22:58:48.133Z,3.67
2022-10-20T23:01:20.984Z,3.82
2022-10-20T23:03:48.529Z,3.81
2022-10-20T23:06:18.778Z,3.76
2022-10-20T23:08:49.855Z,3.58
2022-10-20T23:11:19.454Z,3.56
2022-10-20T23:13:47.464Z,3.57
2022-10-20T23:16:15.209Z,3.58
2022-10-20T23:18:42.871Z,3.67
2022-10-20T23:21:10.268Z,3.58
2022-10-20T23:23:38.008Z,3.55
2022-10-20T23:26:06.833Z,3.40
2022-10-20T23:28:35.128Z,3.49
2022-10-20T23:31:07.174Z,3.42
2022-10-20T23:33:34.610Z,3.44
2022-10-20T23:36:01.915Z,3.30
2022-10-20T23:38:29.292Z,3.34
2022-10-20T23:40:56.439Z,3.34
2022-10-20T23:43:24.014Z,3.47
2022-10-20T23:45:51.239Z,3.35
2022-10-20T23:48:18.608Z,3.38
2022-10-20T23:50:45.746Z,3.30
2022-10-20T23:53:13.427Z,3.19
2022-10-20T23:55:40.606Z,3.16
2022-10-20T23:58:07.952Z,3.31
